Time;durP1;ratioP1;P1;durP2;ratioP2;P2;SDS_P1;SDS_P2;PMS_P1;PMS_P2;Temp;Humidity;BMP_temperature;BMP_pressure;BME280_temperature;BME280_humidity;BME280_pressure;Samples;Min_cycle;Max_cycle;Signal;HPM_P1;HPM_P2
2023/01/24 00:00:48;;;;;;;17.25;12.25;;;2.70;91.00;;;;;;5038815;28;20111;-82
2023/01/24 00:03:15;;;;;;;15.63;12.23;;;2.70;91.10;;;;;;5022205;28;20041;-82
2023/01/24 00:05:42;;;;;;;16.10;12.32;;;2.80;91.20;;;;;;5055046;28;20048;-81
2023/01/24 00:08:08;;;;;;;15.27;11.93;;;2.80;91.20;;;;;;5054698;28;20119;-81
2023/01/24 00:10:34;;;;;;;15.98;11.52;;;2.70;91.20;;;;;;5038449;28;20107;-82
2023/01/24 00:13:00;;;;;;;16.88;11.60;;;2.70;91.20;;;;;;5055417;28;20049;-82
2023/01/24 00:15:26;;;;;;;15.52;11.52;;;2.70;91.20;;;;;;5021649;28;20067;-82
2023/01/24 00:17:51;;;;;;;16.63;12.02;;;2.70;91.30;;;;;;5054727;28;20048;-82
2023/01/24 00:20:17;;;;;;;22.45;12.15;;;2.70;91.30;;;;;;5038405;28;20095;-82
2023/01/24 00:22:43;;;;;;;18.25;12.40;;;2.70;91.20;;;;;;5038208;28;20127;-82
2023/01/24 00:25:08;;;;;;;17.33;11.70;;;2.70;91.20;;;;;;5020837;28;20127;-82
2023/01/24 00:27:34;;;;;;;15.73;11.38;;;2.70;91.20;;;;;;5038011;28;20041;-82
2023/01/24 00:30:02;;;;;;;15.60;11.55;;;2.80;91.20;;;;;;5054978;28;20045;-81
2023/01/24 00:32:27;;;;;;;16.67;11.43;;;2.70;91.30;;;;;;5021707;28;20103;-84
2023/01/24 00:34:53;;;;;;;17.27;12.98;;;2.80;91.30;;;;;;5037891;28;20041;-82
2023/01/24 00:37:19;;;;;;;16.40;11.85;;;2.70;91.20;;;;;;5053592;28;20076;-83
2023/01/24 00:39:44;;;;;;;17.58;12.27;;;2.80;91.30;;;;;;5037646;28;20556;-81
2023/01/24 00:42:10;;;;;;;17.67;12.55;;;2.80;91.30;;;;;;5034582;28;20045;-82
2023/01/24 00:44:36;;;;;;;17.80;11.48;;;2.80;91.30;;;;;;5057221;28;20336;-82
2023/01/24 00:47:01;;;;;;;19.42;12.93;;;2.80;91.30;;;;;;5052625;28;20044;-83
2023/01/24 00:49:27;;;;;;;17.25;12.25;;;2.80;91.30;;;;;;5003522;28;20175;-82
2023/01/24 00:51:53;;;;;;;18.52;11.93;;;2.80;91.20;;;;;;5020661;28;20048;-82
2023/01/24 00:54:18;;;;;;;19.63;13.30;;;2.80;91.20;;;;;;5053690;28;20044;-83
2023/01/24 00:56:44;;;;;;;17.50;12.57;;;2.80;91.20;;;;;;5020765;28;20501;-82
2023/01/24 00:59:10;;;;;;;16.10;12.05;;;2.80;91.20;;;;;;5035086;28;20079;-83
2023/01/24 01:01:35;;;;;;;17.67;12.73;;;2.80;91.20;;;;;;5020372;28;20382;-83
2023/01/24 01:04:01;;;;;;;17.58;12.18;;;2.80;91.10;;;;;;5053980;28;20118;-82
2023/01/24 01:06:27;;;;;;;20.30;13.02;;;2.70;91.10;;;;;;5036999;28;20484;-81
2023/01/24 01:08:53;;;;;;;18.02;12.93;;;2.80;91.10;;;;;;5037219;28;20067;-80
2023/01/24 01:11:19;;;;;;;17.92;12.98;;;2.80;91.10;;;;;;5036510;28;20127;-81
2023/01/24 01:13:48;;;;;;;17.35;11.82;;;2.80;91.00;;;;;;5053824;28;20037;-81
2023/01/24 01:16:19;;;;;;;22.45;14.43;;;2.80;91.00;;;;;;5037099;28;20049;-83
2023/01/24 01:18:49;;;;;;;21.05;12.15;;;2.80;91.10;;;;;;5037120;28;20044;-82
2023/01/24 01:21:17;;;;;;;18.40;13.18;;;2.80;91.10;;;;;;5037210;28;20081;-82
2023/01/24 01:23:43;;;;;;;18.10;12.52;;;2.80;91.10;;;;;;5053627;28;20493;-82
2023/01/24 01:26:14;;;;;;;18.38;12.00;;;2.80;91.20;;;;;;5020546;28;20131;-83
2023/01/24 01:28:40;;;;;;;19.30;13.35;;;2.80;91.20;;;;;;5033672;28;20045;-81
2023/01/24 01:31:06;;;;;;;19.45;12.93;;;2.80;91.10;;;;;;5017196;28;20034;-81
2023/01/24 01:33:31;;;;;;;17.27;12.52;;;2.80;91.10;;;;;;5033829;28;20041;-82
2023/01/24 01:35:57;;;;;;;19.40;13.93;;;2.80;91.10;;;;;;5033489;28;20124;-82
2023/01/24 01:38:25;;;;;;;16.98;12.32;;;2.80;91.10;;;;;;5000716;28;20129;-82
2023/01/24 01:40:51;;;;;;;18.70;12.65;;;2.80;91.10;;;;;;5033669;28;20049;-83
2023/01/24 01:43:22;;;;;;;18.60;13.57;;;2.80;91.10;;;;;;5033457;28;20041;-82
2023/01/24 01:46:15;;;;;;;18.45;12.88;;;2.80;91.10;;;;;;5035798;28;20512;-81
2023/01/24 01:48:47;;;;;;;21.27;13.70;;;2.80;91.10;;;;;;5047935;28;20385;-82
2023/01/24 01:51:24;;;;;;;19.38;13.32;;;2.80;91.10;;;;;;5036685;28;20045;-82
2023/01/24 01:54:08;;;;;;;19.05;13.40;;;2.80;91.20;;;;;;5036431;28;20033;-83
2023/01/24 01:56:39;;;;;;;21.80;13.80;;;2.80;91.10;;;;;;5036463;28;20049;-82
2023/01/24 01:59:12;;;;;;;19.08;13.52;;;2.80;91.20;;;;;;5053176;28;20047;-81
2023/01/24 02:01:38;;;;;;;19.58;13.00;;;2.80;91.20;;;;;;5052316;28;20037;-83
2023/01/24 02:04:08;;;;;;;19.75;13.45;;;2.80;91.20;;;;;;5036343;28;20053;-81
2023/01/24 02:06:48;;;;;;;19.35;13.68;;;2.80;91.20;;;;;;5035771;28;20037;-82
2023/01/24 02:09:20;;;;;;;18.70;13.23;;;2.80;91.10;;;;;;5036273;28;20178;-80
2023/01/24 02:11:46;;;;;;;19.63;13.60;;;2.80;91.20;;;;;;5036403;28;20041;-82
2023/01/24 02:17:01;;;;;;;20.77;14.07;;;2.80;91.20;;;;;;5052877;28;20044;-83
2023/01/24 02:19:52;;;;;;;19.23;13.50;;;2.80;91.20;;;;;;5015641;28;20037;-82
2023/01/24 02:22:26;;;;;;;21.27;13.60;;;2.80;91.20;;;;;;5032592;28;20667;-82
2023/01/24 02:25:19;;;;;;;21.08;14.63;;;2.80;91.10;;;;;;5015960;28;20041;-82
2023/01/24 02:27:45;;;;;;;19.88;13.32;;;2.90;91.10;;;;;;5048929;28;20045;-83
2023/01/24 02:30:11;;;;;;;17.33;12.23;;;2.80;91.10;;;;;;4999773;28;20505;-82
2023/01/24 02:32:37;;;;;;;20.02;13.48;;;2.90;91.00;;;;;;5016066;28;20049;-81
2023/01/24 02:35:03;;;;;;;19.80;13.30;;;2.90;91.00;;;;;;5020888;28;20048;-84
2023/01/24 02:37:29;;;;;;;18.52;12.52;;;2.90;91.00;;;;;;5052241;28;20037;-83
2023/01/24 02:40:07;;;;;;;19.92;14.27;;;2.90;91.10;;;;;;5035696;28;20098;-82
2023/01/24 02:42:38;;;;;;;18.48;12.45;;;2.90;91.10;;;;;;5052207;28;20124;-82
2023/01/24 02:45:42;;;;;;;18.58;12.98;;;2.90;91.00;;;;;;5035357;28;20497;-82
2023/01/24 02:48:08;;;;;;;18.73;13.32;;;2.90;91.00;;;;;;4982164;28;20634;-83
2023/01/24 02:53:29;;;;;;;18.83;12.98;;;2.90;91.00;;;;;;4965430;28;20124;-82
2023/01/24 02:53:29;;;;;;;18.65;12.57;;;2.90;91.00;;;;;;5022511;28;20604;-83
2023/01/24 02:58:40;;;;;;;17.85;12.18;;;2.90;90.90;;;;;;5054721;28;20519;-84
2023/01/24 03:01:06;;;;;;;17.80;12.65;;;2.90;90.80;;;;;;5035273;28;20076;-82
2023/01/24 03:03:31;;;;;;;18.58;12.88;;;2.90;90.80;;;;;;5035348;28;20036;-82
2023/01/24 03:05:57;;;;;;;19.45;13.23;;;2.90;90.90;;;;;;5051687;28;20053;-82
2023/01/24 03:08:29;;;;;;;17.95;12.75;;;2.90;90.90;;;;;;5017949;28;20036;-81
2023/01/24 03:10:56;;;;;;;21.55;13.45;;;2.90;90.90;;;;;;5051846;28;20048;-81
2023/01/24 03:35:17;;;;;;;17.40;12.35;;;2.90;90.90;;;;;;5054394;28;20040;-82
2023/01/24 03:40:27;;;;;;;16.52;11.38;;;2.90;90.90;;;;;;5050359;28;20071;-81
2023/01/24 03:42:53;;;;;;;18.77;12.95;;;2.90;90.80;;;;;;5018364;28;20047;-82
2023/01/24 03:45:25;;;;;;;17.70;11.50;;;2.90;90.90;;;;;;5018183;28;20131;-82
2023/01/24 03:47:55;;;;;;;19.05;12.32;;;2.90;90.80;;;;;;5034861;28;20043;-83
2023/01/24 03:53:21;;;;;;;18.88;12.35;;;3.00;90.80;;;;;;5051573;28;20396;-83
2023/01/24 03:55:50;;;;;;;17.38;12.52;;;2.90;90.80;;;;;;5018241;28;20133;-83
2023/01/24 03:58:16;;;;;;;18.75;13.02;;;2.90;90.80;;;;;;5034153;28;20037;-83
2023/01/24 04:00:41;;;;;;;17.27;12.00;;;2.90;90.80;;;;;;5034700;28;20378;-82
2023/01/24 04:03:07;;;;;;;17.70;12.48;;;2.90;90.80;;;;;;5035077;28;20033;-82
2023/01/24 04:05:34;;;;;;;16.02;11.43;;;2.90;90.70;;;;;;5018149;28;20077;-83
2023/01/24 04:07:59;;;;;;;18.75;12.85;;;3.00;90.60;;;;;;5034602;28;20562;-81
2023/01/24 04:10:25;;;;;;;18.42;13.02;;;3.00;90.60;;;;;;5018189;28;20041;-83
2023/01/24 04:12:51;;;;;;;21.33;13.65;;;3.00;90.70;;;;;;5017016;28;20048;-83
2023/01/24 04:15:23;;;;;;;18.02;11.52;;;3.00;90.70;;;;;;5050846;28;20118;-82
2023/01/24 04:17:49;;;;;;;18.33;11.98;;;3.00;90.80;;;;;;5051105;28;20045;-83
2023/01/24 04:20:15;;;;;;;15.00;11.68;;;3.00;90.50;;;;;;5051052;28;20033;-84
2023/01/24 04:22:41;;;;;;;17.42;12.45;;;3.00;90.50;;;;;;5034505;28;20481;-82
2023/01/24 04:25:08;;;;;;;16.45;12.30;;;3.00;90.50;;;;;;5051208;28;20041;-82
2023/01/24 04:27:34;;;;;;;18.23;12.00;;;3.00;90.50;;;;;;5051190;28;20497;-82
2023/01/24 04:30:00;;;;;;;17.77;12.73;;;3.00;90.60;;;;;;5020092;28;20612;-82
2023/01/24 04:32:26;;;;;;;17.45;12.18;;;3.00;90.60;;;;;;5037417;28;20041;-83
2023/01/24 04:34:51;;;;;;;16.30;11.52;;;2.90;90.70;;;;;;5055024;28;20044;-82
2023/01/24 04:37:17;;;;;;;18.50;11.77;;;2.90;90.70;;;;;;5038090;28;20048;-83
2023/01/24 04:39:42;;;;;;;15.23;10.98;;;2.90;90.70;;;;;;5054514;28;20040;-82
2023/01/24 04:42:08;;;;;;;15.45;11.15;;;2.90;90.70;;;;;;5021408;28;20041;-83
2023/01/24 04:44:34;;;;;;;16.90;12.02;;;2.90;90.60;;;;;;5037684;28;20041;-82
2023/01/24 04:47:00;;;;;;;16.85;11.60;;;3.00;90.60;;;;;;5038126;28;20131;-81
2023/01/24 04:49:26;;;;;;;19.27;12.25;;;3.00;90.70;;;;;;5053203;28;20060;-83
2023/01/24 04:51:51;;;;;;;17.85;11.70;;;3.00;90.60;;;;;;5037942;28;20079;-82
2023/01/24 04:54:18;;;;;;;16.48;11.02;;;3.00;90.60;;;;;;5037615;28;20552;-82
2023/01/24 04:56:44;;;;;;;16.30;12.23;;;2.90;90.50;;;;;;5037541;28;20045;-82
2023/01/24 04:59:13;;;;;;;15.70;10.90;;;3.00;90.50;;;;;;5037601;28;20136;-82
2023/01/24 05:01:39;;;;;;;16.05;11.07;;;3.00;90.40;;;;;;5037524;28;20496;-82
2023/01/24 05:04:06;;;;;;;14.93;10.70;;;3.00;90.40;;;;;;5036461;28;20183;-81
2023/01/24 05:06:33;;;;;;;15.57;11.27;;;2.90;90.30;;;;;;5037311;28;20045;-82
2023/01/24 05:08:59;;;;;;;13.25;9.60;;;2.90;90.20;;;;;;5037334;28;20041;-83
2023/01/24 05:11:25;;;;;;;15.77;10.18;;;3.00;90.30;;;;;;5020938;28;20036;-82
2023/01/24 05:13:51;;;;;;;13.48;10.30;;;3.00;90.20;;;;;;5020867;28;20036;-81
2023/01/24 05:16:17;;;;;;;15.13;10.32;;;2.90;90.00;;;;;;5020810;28;20631;-83
2023/01/24 05:18:43;;;;;;;14.15;10.07;;;3.00;90.00;;;;;;5037741;28;20037;-81
2023/01/24 05:21:13;;;;;;;16.42;10.57;;;2.90;90.00;;;;;;5037226;28;20433;-83
2023/01/24 05:23:39;;;;;;;14.50;10.55;;;2.90;90.00;;;;;;5036479;28;20076;-82
2023/01/24 05:26:05;;;;;;;12.52;9.45;;;3.00;90.10;;;;;;5036955;28;20079;-82
2023/01/24 05:28:31;;;;;;;15.32;10.88;;;3.00;90.00;;;;;;5020910;28;20033;-82
2023/01/24 05:31:01;;;;;;;16.15;11.30;;;2.90;90.00;;;;;;5037097;28;20405;-82
2023/01/24 05:33:27;;;;;;;16.73;11.43;;;2.90;90.00;;;;;;5053958;28;20037;-81
2023/01/24 05:36:07;;;;;;;16.10;11.45;;;2.90;90.00;;;;;;5037132;28;20045;-81
2023/01/24 05:38:33;;;;;;;14.60;10.35;;;2.90;90.10;;;;;;5052859;28;20102;-81
2023/01/24 05:41:07;;;;;;;15.77;11.35;;;2.90;90.10;;;;;;5019762;28;20127;-82
2023/01/24 05:43:34;;;;;;;12.98;10.32;;;2.90;90.00;;;;;;5053486;28;20532;-81
2023/01/24 05:46:20;;;;;;;13.80;9.63;;;2.90;89.90;;;;;;5036685;28;20501;-80
2023/01/24 05:48:47;;;;;;;13.32;9.65;;;2.90;90.00;;;;;;5053456;28;20465;-82
2023/01/24 05:51:15;;;;;;;14.18;10.70;;;2.90;90.10;;;;;;5036551;28;20033;-82
2023/01/24 05:53:42;;;;;;;14.02;10.73;;;2.80;90.00;;;;;;5053150;28;20036;-82
2023/01/24 05:56:17;;;;;;;15.40;11.13;;;2.80;89.90;;;;;;5019252;28;20052;-83
2023/01/24 05:58:44;;;;;;;15.40;11.13;;;2.80;90.00;;;;;;5036508;28;20041;-81
2023/01/24 06:01:13;;;;;;;15.77;11.93;;;2.80;90.10;;;;;;5053294;28;20417;-82
2023/01/24 06:03:40;;;;;;;16.13;10.98;;;2.80;90.10;;;;;;5036410;28;20040;-81
2023/01/24 06:06:08;;;;;;;14.63;11.02;;;2.80;90.10;;;;;;5052753;28;20486;-82
2023/01/24 06:08:34;;;;;;;16.77;11.23;;;2.90;90.10;;;;;;5036254;28;20534;-81
2023/01/24 06:11:20;;;;;;;19.77;13.57;;;2.90;90.20;;;;;;5053156;28;20041;-82
2023/01/24 06:13:47;;;;;;;16.85;12.18;;;2.80;90.20;;;;;;5035323;28;20543;-82
2023/01/24 06:16:19;;;;;;;18.27;13.35;;;2.80;90.00;;;;;;5052670;28;20092;-81
2023/01/24 06:18:46;;;;;;;18.63;12.48;;;2.80;90.00;;;;;;5036105;28;20037;-82
2023/01/24 06:21:43;;;;;;;20.13;13.25;;;2.80;90.10;;;;;;5019623;28;20044;-82
2023/01/24 06:24:20;;;;;;;19.35;14.23;;;2.80;90.10;;;;;;5035924;28;20489;-81
2023/01/24 06:26:47;;;;;;;17.80;12.93;;;2.80;90.10;;;;;;5035902;28;20052;-82
2023/01/24 06:29:13;;;;;;;18.52;13.13;;;2.80;90.00;;;;;;5052463;28;20126;-81
2023/01/24 06:32:26;;;;;;;20.05;12.82;;;2.80;90.00;;;;;;5024812;28;20048;-83
2023/01/24 06:35:13;;;;;;;19.23;12.82;;;2.80;90.10;;;;;;5015965;28;20048;-81
2023/01/24 06:37:46;;;;;;;19.23;13.52;;;2.80;90.20;;;;;;5032372;28;20048;-81
2023/01/24 06:40:15;;;;;;;19.08;12.63;;;2.80;90.30;;;;;;5032718;28;20071;-82
2023/01/24 06:42:41;;;;;;;19.75;13.27;;;2.80;90.30;;;;;;5032333;28;20068;-81
2023/01/24 06:45:08;;;;;;;18.48;13.35;;;2.80;90.30;;;;;;5015675;28;20160;-82
2023/01/24 06:47:34;;;;;;;21.05;14.00;;;2.80;90.20;;;;;;5015778;28;20091;-81
2023/01/24 06:49:59;;;;;;;19.67;12.95;;;2.80;90.10;;;;;;5032176;28;20124;-79
2023/01/24 06:52:25;;;;;;;19.45;13.15;;;2.70;90.10;;;;;;5024630;28;20087;-80
2023/01/24 06:54:51;;;;;;;20.85;13.80;;;2.80;90.20;;;;;;5015927;28;20064;-81
2023/01/24 06:57:16;;;;;;;19.83;14.20;;;2.70;90.10;;;;;;5015653;28;20044;-81
2023/01/24 06:59:42;;;;;;;22.02;14.07;;;2.80;90.20;;;;;;5015716;28;20124;-82
2023/01/24 07:02:11;;;;;;;21.17;14.43;;;2.70;90.20;;;;;;5015663;28;20056;-82
2023/01/24 07:04:37;;;;;;;21.38;15.05;;;2.70;90.10;;;;;;5022999;28;20446;-83
2023/01/24 07:07:05;;;;;;;19.75;13.57;;;2.70;90.20;;;;;;5019027;28;20041;-82
2023/01/24 07:09:31;;;;;;;23.02;14.80;;;2.70;90.20;;;;;;5035911;28;20377;-81
2023/01/24 07:11:58;;;;;;;22.42;14.40;;;2.70;90.30;;;;;;5035363;28;20151;-80
2023/01/24 07:14:24;;;;;;;26.45;15.85;;;2.70;90.30;;;;;;5035046;28;20061;-82
2023/01/24 07:16:51;;;;;;;22.45;14.10;;;2.70;90.30;;;;;;5035608;28;20191;-83
2023/01/24 07:19:21;;;;;;;22.13;15.20;;;2.70;90.20;;;;;;5018692;28;20036;-85
2023/01/24 07:21:47;;;;;;;23.20;14.90;;;2.70;90.20;;;;;;5034395;28;20037;-85
2023/01/24 07:24:18;;;;;;;24.55;15.38;;;2.70;90.20;;;;;;5034962;28;20342;-83
2023/01/24 07:26:44;;;;;;;24.55;15.63;;;2.70;90.20;;;;;;5034983;28;20044;-85
2023/01/24 07:29:10;;;;;;;25.58;16.17;;;2.70;90.20;;;;;;5019442;28;20132;-84
2023/01/24 07:31:36;;;;;;;21.83;16.08;;;2.70;90.20;;;;;;5031678;28;20033;-84
2023/01/24 07:34:02;;;;;;;25.08;17.58;;;2.70;90.30;;;;;;5031842;28;20045;-83
2023/01/24 07:36:28;;;;;;;23.88;16.20;;;2.70;90.30;;;;;;5015240;28;20049;-83
2023/01/24 07:38:54;;;;;;;26.30;18.20;;;2.70;90.30;;;;;;5034126;28;20076;-84
2023/01/24 07:41:20;;;;;;;23.20;15.98;;;2.70;90.30;;;;;;5018486;28;20579;-82
2023/01/24 07:43:46;;;;;;;22.45;15.98;;;2.60;90.30;;;;;;5018608;28;20136;-83
2023/01/24 07:46:12;;;;;;;24.08;15.77;;;2.70;90.40;;;;;;5034850;28;20452;-84
2023/01/24 07:48:38;;;;;;;24.15;17.42;;;2.70;90.40;;;;;;5051456;28;20059;-84
2023/01/24 07:51:04;;;;;;;26.92;17.70;;;2.70;90.40;;;;;;5018442;28;20508;-83
2023/01/24 07:53:29;;;;;;;26.88;18.40;;;2.70;90.40;;;;;;5034587;28;20385;-83
2023/01/24 07:55:58;;;;;;;24.83;17.75;;;2.60;90.40;;;;;;5017418;28;20033;-83
2023/01/24 07:58:24;;;;;;;25.55;17.85;;;2.60;90.40;;;;;;5034795;28;20037;-83
2023/01/24 08:00:50;;;;;;;25.42;16.85;;;2.60;90.50;;;;;;5034576;28;20127;-82
2023/01/24 08:03:15;;;;;;;29.08;18.30;;;2.60;90.60;;;;;;5033669;28;20029;-83
2023/01/24 08:05:41;;;;;;;27.60;19.30;;;2.60;90.60;;;;;;5037220;28;20549;-80
2023/01/24 08:08:07;;;;;;;23.58;16.55;;;2.70;90.70;;;;;;5038726;28;20091;-81
2023/01/24 08:10:32;;;;;;;31.08;17.77;;;2.70;90.60;;;;;;5036520;28;20397;-80
2023/01/24 08:12:58;;;;;;;26.70;17.02;;;2.70;90.60;;;;;;5038433;28;20128;-81
2023/01/24 08:15:25;;;;;;;25.85;17.45;;;2.70;90.60;;;;;;5054831;28;20053;-82
2023/01/24 08:17:51;;;;;;;29.55;20.05;;;2.70;90.50;;;;;;5038441;28;20102;-80
2023/01/24 08:20:17;;;;;;;26.92;18.00;;;2.70;90.30;;;;;;5022121;28;20080;-82
2023/01/24 08:22:42;;;;;;;30.45;19.13;;;2.70;90.30;;;;;;5055109;28;20444;-81
2023/01/24 08:25:09;;;;;;;25.02;16.92;;;2.60;90.30;;;;;;5021680;28;20045;-82
2023/01/24 08:27:35;;;;;;;26.50;17.45;;;2.60;90.30;;;;;;5036279;28;20044;-80
2023/01/24 08:30:01;;;;;;;25.67;17.13;;;2.70;90.40;;;;;;5036831;28;20115;-81
2023/01/24 08:32:27;;;;;;;27.52;17.90;;;2.70;90.30;;;;;;5019914;28;20077;-82
2023/01/24 08:34:53;;;;;;;25.20;16.85;;;2.70;90.30;;;;;;5019873;28;20095;-81
2023/01/24 08:37:18;;;;;;;29.35;19.70;;;2.70;90.30;;;;;;5036785;28;20099;-82
2023/01/24 08:39:44;;;;;;;27.55;17.50;;;2.70;90.20;;;;;;5036890;28;20128;-81
2023/01/24 08:42:11;;;;;;;27.83;19.02;;;2.70;90.30;;;;;;5020636;28;20068;-82
2023/01/24 08:44:37;;;;;;;28.27;17.88;;;2.70;90.30;;;;;;5053587;28;20041;-80
2023/01/24 08:47:02;;;;;;;29.13;18.92;;;2.60;90.40;;;;;;5021260;28;20048;-82
2023/01/24 08:49:28;;;;;;;30.05;18.80;;;2.70;90.40;;;;;;5021610;28;20025;-82
2023/01/24 08:51:58;;;;;;;28.25;18.27;;;2.60;90.40;;;;;;5021279;28;20443;-82
2023/01/24 08:54:28;;;;;;;26.45;17.05;;;2.70;90.40;;;;;;5021944;28;20040;-82
2023/01/24 08:56:54;;;;;;;24.63;16.48;;;2.70;90.40;;;;;;5037943;28;20102;-81
2023/01/24 08:59:20;;;;;;;24.70;17.27;;;2.70;90.40;;;;;;5036701;28;20131;-81
2023/01/24 09:01:46;;;;;;;24.95;16.67;;;2.70;90.40;;;;;;5037849;28;20183;-82
2023/01/24 09:04:12;;;;;;;25.45;17.10;;;2.70;90.40;;;;;;5054181;28;20045;-81
2023/01/24 09:06:38;;;;;;;24.58;15.60;;;2.70;90.40;;;;;;5053984;28;20115;-82
2023/01/24 09:09:05;;;;;;;25.60;15.80;;;2.70;90.40;;;;;;5037878;28;20028;-82
2023/01/24 09:11:31;;;;;;;27.50;17.02;;;2.70;90.40;;;;;;5021304;28;20045;-83
2023/01/24 09:13:57;;;;;;;24.80;17.02;;;2.70;90.40;;;;;;5037066;28;20174;-82
2023/01/24 09:16:23;;;;;;;26.02;17.15;;;2.70;90.40;;;;;;5035289;28;20088;-81
2023/01/24 09:18:51;;;;;;;23.23;15.82;;;2.70;90.40;;;;;;5037292;28;20052;-81
2023/01/24 09:21:17;;;;;;;28.95;17.75;;;2.70;90.40;;;;;;5053934;28;20045;-81
2023/01/24 09:23:43;;;;;;;26.88;17.90;;;2.70;90.40;;;;;;5034574;28;20033;-81
2023/01/24 09:26:09;;;;;;;25.35;17.38;;;2.80;90.50;;;;;;5037370;28;20068;-80
2023/01/24 09:28:35;;;;;;;23.98;16.60;;;2.80;90.70;;;;;;5053945;28;20041;-81
2023/01/24 09:31:01;;;;;;;26.50;17.30;;;2.80;90.60;;;;;;5020980;28;20059;-82
2023/01/24 09:33:27;;;;;;;25.95;16.85;;;2.80;90.60;;;;;;5053592;28;20405;-81
2023/01/24 09:35:56;;;;;;;25.83;17.27;;;2.80;90.70;;;;;;5053470;28;20045;-83
2023/01/24 09:38:23;;;;;;;22.70;14.98;;;2.80;90.70;;;;;;5036987;28;20045;-81
2023/01/24 09:41:24;;;;;;;22.02;14.20;;;2.80;90.70;;;;;;5019657;28;20093;-81
2023/01/24 09:43:53;;;;;;;22.10;15.57;;;2.80;90.70;;;;;;5053869;28;20036;-80
2023/01/24 09:46:44;;;;;;;25.95;16.25;;;2.80;90.70;;;;;;5035852;28;20382;-82
2023/01/24 09:49:15;;;;;;;21.75;14.77;;;2.80;90.70;;;;;;5036925;28;20037;-79
2023/01/24 09:51:46;;;;;;;21.73;15.80;;;2.90;90.80;;;;;;5036910;28;20075;-82
2023/01/24 09:54:37;;;;;;;21.65;14.13;;;2.90;90.70;;;;;;5053457;28;20049;-81
2023/01/24 09:57:27;;;;;;;20.75;14.45;;;2.90;90.70;;;;;;5036381;28;20059;-82
2023/01/24 10:00:00;;;;;;;22.10;13.27;;;2.80;90.60;;;;;;5035975;28;20040;-80
2023/01/24 10:02:27;;;;;;;21.08;13.82;;;2.80;90.60;;;;;;5053949;28;20470;-81
2023/01/24 10:04:53;;;;;;;19.98;13.40;;;2.80;90.50;;;;;;5053355;28;20048;-80
2023/01/24 10:07:34;;;;;;;18.02;12.93;;;2.80;90.40;;;;;;5053285;28;20123;-81
2023/01/24 10:10:42;;;;;;;17.70;12.38;;;2.80;90.30;;;;;;5036359;28;20037;-81
2023/01/24 10:13:23;;;;;;;20.70;13.00;;;2.80;90.30;;;;;;5044452;28;20551;-82
2023/01/24 10:16:09;;;;;;;21.20;13.75;;;2.80;90.20;;;;;;5046108;28;20139;-80
2023/01/24 10:18:56;;;;;;;19.55;12.23;;;2.80;90.20;;;;;;5036387;28;20557;-81
2023/01/24 10:21:49;;;;;;;21.15;13.07;;;2.90;90.40;;;;;;5052837;28;20056;-82
2023/01/24 10:24:22;;;;;;;19.45;13.00;;;2.80;90.30;;;;;;5036402;28;20359;-80
2023/01/24 10:26:50;;;;;;;21.33;13.27;;;2.90;90.30;;;;;;5036059;28;20493;-81
2023/01/24 10:29:22;;;;;;;17.55;12.60;;;2.90;90.30;;;;;;5036313;28;20032;-80
2023/01/24 10:32:04;;;;;;;19.58;12.77;;;2.90;90.30;;;;;;5051681;28;20072;-82
2023/01/24 10:34:36;;;;;;;19.13;13.40;;;2.90;90.20;;;;;;5052597;28;20044;-80
2023/01/24 10:37:22;;;;;;;19.30;13.07;;;2.90;90.10;;;;;;5036333;28;20401;-80
2023/01/24 10:39:49;;;;;;;18.63;13.85;;;2.90;90.20;;;;;;5052664;28;20128;-81
2023/01/24 10:42:41;;;;;;;22.67;13.55;;;3.00;90.20;;;;;;5036452;28;20048;-81
2023/01/24 10:45:40;;;;;;;19.23;13.38;;;2.90;90.10;;;;;;5034050;28;22050;-81
2023/01/24 10:48:17;;;;;;;19.83;14.13;;;2.90;90.10;;;;;;5035030;28;20132;-81
2023/01/24 10:50:44;;;;;;;20.73;13.68;;;3.00;90.10;;;;;;5036222;28;20037;-81
2023/01/24 10:53:26;;;;;;;21.42;13.02;;;3.00;90.10;;;;;;5052587;28;20033;-80
2023/01/24 10:56:05;;;;;;;18.67;13.68;;;2.90;90.00;;;;;;5035731;28;20044;-82
2023/01/24 10:58:43;;;;;;;18.15;12.95;;;2.90;90.00;;;;;;5019649;28;20052;-80
2023/01/24 11:01:20;;;;;;;21.48;14.82;;;3.00;90.10;;;;;;5035640;28;20045;-81
2023/01/24 11:03:49;;;;;;;18.02;12.75;;;2.90;90.00;;;;;;5036099;28;20099;-80
2023/01/24 11:06:24;;;;;;;20.02;13.88;;;3.00;90.10;;;;;;5051177;28;20098;-81
2023/01/24 11:09:07;;;;;;;19.60;12.88;;;3.00;90.10;;;;;;5052347;28;20037;-82
2023/01/24 11:11:33;;;;;;;19.60;14.20;;;3.00;90.10;;;;;;5035635;28;20098;-81
2023/01/24 11:14:00;;;;;;;17.38;12.63;;;3.00;90.00;;;;;;5052032;28;20120;-81
2023/01/24 11:16:47;;;;;;;19.27;13.10;;;3.00;90.10;;;;;;5035295;28;20049;-81
2023/01/24 11:19:32;;;;;;;18.88;12.80;;;3.10;90.10;;;;;;5035642;28;20155;-82
2023/01/24 11:22:18;;;;;;;22.15;14.20;;;3.10;90.20;;;;;;5052063;28;20041;-82
2023/01/24 11:24:44;;;;;;;20.52;14.65;;;3.00;90.00;;;;;;5051086;28;20053;-82
2023/01/24 11:27:16;;;;;;;19.98;13.15;;;3.00;89.90;;;;;;5052099;28;20045;-81
2023/01/24 11:29:42;;;;;;;21.23;14.70;;;3.00;90.00;;;;;;5052090;28;20055;-82
2023/01/24 11:32:31;;;;;;;19.73;13.82;;;3.00;90.00;;;;;;5052377;28;20036;-81
2023/01/24 11:34:59;;;;;;;17.23;13.02;;;3.00;90.00;;;;;;5035318;28;20036;-81
2023/01/24 11:37:40;;;;;;;19.60;12.82;;;3.00;90.00;;;;;;5035492;28;20037;-81
2023/01/24 11:40:21;;;;;;;24.05;14.40;;;3.00;90.00;;;;;;5053020;28;20131;-82
2023/01/24 11:43:03;;;;;;;20.02;14.25;;;3.10;90.00;;;;;;5039547;28;20041;-81
2023/01/24 11:45:56;;;;;;;18.38;12.52;;;3.10;90.10;;;;;;5038907;28;20045;-81
2023/01/24 11:48:29;;;;;;;18.85;14.13;;;3.10;90.00;;;;;;5055484;28;20041;-81
2023/01/24 11:51:10;;;;;;;17.13;12.80;;;3.10;90.00;;;;;;5055496;28;20037;-82
2023/01/24 11:53:46;;;;;;;19.40;12.93;;;3.00;90.00;;;;;;5055742;28;20049;-81
2023/01/24 11:56:30;;;;;;;18.17;12.45;;;3.10;90.00;;;;;;5054439;28;20091;-79
2023/01/24 11:59:21;;;;;;;19.73;12.63;;;3.00;90.00;;;;;;5038747;28;20044;-80
2023/01/24 12:02:14;;;;;;;20.55;13.63;;;3.00;90.00;;;;;;5055137;28;20095;-81
2023/01/24 12:05:02;;;;;;;19.77;13.65;;;3.00;89.90;;;;;;5038607;28;20079;-81
2023/01/24 12:07:57;;;;;;;19.48;13.52;;;3.10;89.80;;;;;;5038850;28;20425;-81
2023/01/24 12:10:30;;;;;;;;;;;3.00;89.90;;;;;;5039029;28;20504;-81
2023/01/24 12:13:20;;;;;;;24.52;14.80;;;3.00;89.60;;;;;;5035627;28;19924;-79
2023/01/24 12:16:16;;;;;;;21.65;13.90;;;3.00;89.60;;;;;;5051628;28;20402;-82
2023/01/24 12:19:27;;;;;;;19.45;12.60;;;3.00;89.80;;;;;;5051652;28;20485;-82
2023/01/24 12:22:00;;;;;;;17.65;12.88;;;3.10;89.90;;;;;;5051724;28;20045;-81
2023/01/24 12:24:35;;;;;;;19.50;12.68;;;3.10;90.00;;;;;;5035152;28;20042;-81
2023/01/24 12:27:04;;;;;;;17.00;12.10;;;3.10;89.80;;;;;;5034930;28;20056;-81
2023/01/24 12:29:42;;;;;;;19.02;13.63;;;3.10;89.80;;;;;;5046510;28;20389;-80
2023/01/24 12:32:44;;;;;;;19.70;12.65;;;3.10;89.70;;;;;;5054783;28;20076;-82
2023/01/24 12:35:30;;;;;;;19.23;12.73;;;3.10;89.80;;;;;;5053476;28;20035;-82
2023/01/24 12:38:00;;;;;;;18.33;12.45;;;3.10;89.90;;;;;;5038152;28;20040;-81
2023/01/24 12:40:39;;;;;;;18.88;13.10;;;3.10;89.90;;;;;;5054686;28;20041;-82
2023/01/24 12:43:11;;;;;;;17.58;13.25;;;3.10;89.90;;;;;;5038318;28;20083;-80
2023/01/24 12:45:52;;;;;;;20.05;13.35;;;3.10;90.00;;;;;;5054496;28;20052;-81
2023/01/24 12:48:40;;;;;;;20.20;14.20;;;3.10;89.80;;;;;;5054573;28;20045;-80
2023/01/24 12:51:28;;;;;;;19.27;13.38;;;3.10;89.90;;;;;;5054347;28;20043;-81
2023/01/24 12:54:06;;;;;;;19.67;13.32;;;3.10;89.90;;;;;;5055010;28;20107;-83
2023/01/24 12:56:59;;;;;;;19.80;14.05;;;3.10;89.80;;;;;;5055254;28;20044;-81
2023/01/24 12:59:28;;;;;;;19.60;14.20;;;3.10;89.90;;;;;;5054905;28;20049;-81
2023/01/24 13:02:14;;;;;;;19.83;13.40;;;3.10;89.90;;;;;;5037664;28;20485;-83
2023/01/24 13:05:19;;;;;;;21.73;15.50;;;3.10;89.90;;;;;;5037684;28;20055;-83
2023/01/24 13:08:09;;;;;;;146.90;73.82;;;3.20;89.90;;;;;;5036883;28;20044;-82
2023/01/24 13:10:51;;;;;;;31.67;19.48;;;3.20;89.80;;;;;;5054518;28;20393;-82
2023/01/24 13:13:30;;;;;;;21.85;14.15;;;3.10;89.70;;;;;;5054132;28;20083;-81
2023/01/24 13:16:05;;;;;;;20.42;14.15;;;3.10;89.80;;;;;;5037428;28;20137;-82
2023/01/24 13:18:53;;;;;;;20.15;13.27;;;3.10;89.70;;;;;;5037389;28;20052;-83
2023/01/24 13:21:27;;;;;;;20.83;13.93;;;3.10;89.80;;;;;;5053949;28;20532;-82
2023/01/24 13:24:25;;;;;;;22.48;14.48;;;3.10;89.50;;;;;;5037258;28;20041;-82
2023/01/24 13:27:09;;;;;;;20.75;13.70;;;3.10;89.50;;;;;;5030881;28;20465;-82
2023/01/24 13:29:44;;;;;;;19.10;13.10;;;3.10;89.70;;;;;;5037158;28;20043;-83
2023/01/24 13:32:19;;;;;;;24.63;14.68;;;3.10;89.80;;;;;;5037253;28;20393;-81
2023/01/24 13:34:49;;;;;;;24.15;15.25;;;3.10;89.80;;;;;;5035763;28;20056;-81